KNQI

Naval Air Station Kingsville

Airport
ICAO code
KNQI
Summary
ICAO Region
NAM
ICAO Territory
Location

Kingsville, Texas,

Coordinates
27° 30' 26" N , 97° 48' 35" W
KCC
Airport LOS
Parallel Runway Operation
Metar
Observation
KNQI 071756Z 15005KT 10SM SCT040 BKN050 OVC080 23/19 A3019 RMK AO2 RAB05E17 SLP220 P0000 60005 T02280189 10233 20211 58005 $
Station
Kingsville, Naval Air Station
Date/Time
2022-10-07 17:56:00
Wind direction
150°
Wind speed
05 kts
Lowest cloud amount
scattered clouds
Temperature
22.8°C
Dew point
18.9°C
Humidity
78%
Weather condition
n/a

Description

Naval Air Station Kingsville or NAS Kingsville,is a military airport located 5 km east of Kingsville, Texas.

Climatology

Humid “subtropical” climate (Köppen climate classification Cfa) - characterized by hot, humid summers and mild winters. Most rainfall occurs during summer and is often associated with thunderstorms and occasional tropical storms (hurricanes).

Runways

Designator Length Width Surface Rops
13L/31R 2438 61 PEM No/No
13R/31L 2438 61 PEM No/No
17L/35R 2438 61 PEM No/No
17R/35L 2438 61 PEM No/No

Airport map

Aerial View

SKYbrary Partners:

Safety knowledge contributed by: